Time;durP1;ratioP1;P1;durP2;ratioP2;P2;SDS_P1;SDS_P2;PMS_P1;PMS_P2;Temp;Humidity;BMP_temperature;BMP_pressure;BME280_temperature;BME280_humidity;BME280_pressure;Samples;Min_cycle;Max_cycle;Signal;HPM_P1;HPM_P2
2021/10/23 00:00:33;;;;;;;4.65;1.80;;;;;;;11.30;60.63;100851.00;5036938;28;20154;-69
2021/10/23 00:02:59;;;;;;;9.27;2.33;;;;;;;11.17;60.70;100844.94;5046024;28;20539;-70
2021/10/23 00:05:24;;;;;;;4.20;2.30;;;;;;;11.20;60.29;100866.16;5045852;28;20021;-70
2021/10/23 00:07:50;;;;;;;4.90;1.83;;;;;;;11.12;60.14;100866.78;5045928;28;20478;-70
2021/10/23 00:10:16;;;;;;;4.22;1.50;;;;;;;11.04;60.56;100874.63;5045793;28;20114;-69
2021/10/23 00:12:42;;;;;;;5.43;1.90;;;;;;;10.98;59.91;100875.13;5045699;28;20037;-69
2021/10/23 00:15:08;;;;;;;3.55;1.75;;;;;;;10.94;59.74;100886.22;5045856;28;20036;-69
2021/10/23 00:17:34;;;;;;;5.82;1.83;;;;;;;10.89;59.89;100870.47;5045377;28;20606;-69
2021/10/23 00:20:00;;;;;;;4.43;1.83;;;;;;;10.83;59.55;100876.34;5045689;28;20025;-69
2021/10/23 00:22:27;;;;;;;7.68;1.90;;;;;;;10.79;59.82;100876.69;5044537;28;20025;-69
2021/10/23 00:24:53;;;;;;;6.13;2.42;;;;;;;10.65;59.69;100859.03;5045610;28;20040;-69
2021/10/23 00:27:18;;;;;;;5.53;1.92;;;;;;;10.70;60.00;100880.97;5045587;28;20033;-70
2021/10/23 00:29:44;;;;;;;9.23;2.10;;;;;;;10.54;59.97;100856.34;5045436;28;20029;-68
2021/10/23 00:32:09;;;;;;;4.50;1.50;;;;;;;10.58;59.78;100884.63;5045584;28;20112;-67
2021/10/23 00:34:35;;;;;;;6.55;1.50;;;;;;;10.52;60.31;100878.91;5045140;28;20140;-70
2021/10/23 00:37:00;;;;;;;3.28;1.35;;;;;;;10.39;60.17;100870.97;5045373;28;20044;-70
2021/10/23 00:39:26;;;;;;;3.95;1.60;;;;;;;10.40;60.35;100883.41;5045576;28;20390;-69
2021/10/23 00:41:51;;;;;;;6.15;1.50;;;;;;;10.30;60.27;100889.59;5045606;28;20033;-69
2021/10/23 00:44:31;;;;;;;4.40;1.45;;;;;;;10.25;60.37;100891.78;5045229;28;20039;-69
2021/10/23 00:47:04;;;;;;;4.28;1.73;;;;;;;10.11;60.76;100884.81;5044107;28;20033;-69
2021/10/23 00:49:30;;;;;;;4.35;2.10;;;;;;;10.00;60.31;100879.34;5036142;28;20037;-69
2021/10/23 00:51:57;;;;;;;3.17;1.70;;;;;;;10.03;60.09;100895.19;5026953;28;20029;-70
2021/10/23 00:54:24;;;;;;;8.00;1.83;;;;;;;10.00;60.37;100891.91;5029151;28;20036;-69
2021/10/23 00:56:50;;;;;;;3.45;1.33;;;;;;;10.00;59.53;100891.91;5029762;28;20768;-69
2021/10/23 00:59:15;;;;;;;4.28;1.50;;;;;;;9.97;59.50;100900.19;5041028;28;20104;-69
2021/10/23 01:01:41;;;;;;;3.72;1.50;;;;;;;9.79;60.07;100877.47;5047753;28;20021;-65
2021/10/23 01:04:06;;;;;;;3.20;1.35;;;;;;;9.86;60.15;100897.50;5049032;28;20083;-65
2021/10/23 01:06:32;;;;;;;4.65;1.35;;;;;;;9.83;60.34;100895.03;5048794;28;20032;-65
2021/10/23 01:08:58;;;;;;;4.82;1.40;;;;;;;9.79;60.56;100891.72;5049404;28;20033;-65
2021/10/23 01:11:27;;;;;;;4.80;1.50;;;;;;;9.74;61.50;100891.19;5048458;28;20037;-64
2021/10/23 01:13:52;;;;;;;5.00;1.55;;;;;;;9.73;61.62;100894.84;5047449;28;20020;-65
2021/10/23 01:16:18;;;;;;;6.75;1.70;;;;;;;9.60;62.04;100877.13;5048566;28;20039;-65
2021/10/23 01:18:44;;;;;;;4.30;1.48;;;;;;;9.60;62.14;100882.50;5048753;28;20052;-66
2021/10/23 01:21:10;;;;;;;4.50;1.90;;;;;;;9.58;61.83;100882.63;5048837;28;20043;-64
2021/10/23 01:23:35;;;;;;;4.15;1.45;;;;;;;9.63;61.66;100909.03;5048287;28;20231;-64
2021/10/23 01:26:02;;;;;;;5.82;1.58;;;;;;;9.55;61.53;100901.59;5047515;28;20068;-64
2021/10/23 01:28:27;;;;;;;4.78;1.17;;;;;;;9.59;61.41;100908.44;5028937;28;20108;-64
2021/10/23 01:30:57;;;;;;;5.65;1.75;;;;;;;9.57;61.83;100910.34;5028490;28;20432;-64
2021/10/23 01:33:23;;;;;;;4.95;1.40;;;;;;;9.54;61.63;100905.22;5028138;28;20217;-64
2021/10/23 01:35:48;;;;;;;3.63;1.58;;;;;;;9.59;61.50;100915.59;5041781;28;20025;-64
2021/10/23 01:38:14;;;;;;;6.53;1.88;;;;;;;9.60;61.58;100912.81;5048593;28;20021;-64
2021/10/23 01:40:39;;;;;;;4.25;1.60;;;;;;;9.54;60.91;100894.50;5048326;28;20028;-64
2021/10/23 01:43:05;;;;;;;6.28;1.65;;;;;;;9.62;61.05;100913.56;5048205;28;20033;-64
2021/10/23 01:45:32;;;;;;;4.57;1.30;;;;;;;9.56;60.75;100889.91;5048287;28;20045;-64
2021/10/23 01:47:58;;;;;;;5.55;1.50;;;;;;;9.67;60.29;100899.84;5048398;28;20029;-64
2021/10/23 01:50:26;;;;;;;5.85;1.70;;;;;;;9.69;59.94;100892.53;5047896;28;20071;-64
2021/10/23 01:52:53;;;;;;;4.68;1.52;;;;;;;9.72;59.51;100893.16;5048183;28;20058;-64
2021/10/23 01:55:19;;;;;;;6.35;2.00;;;;;;;9.73;59.62;100894.00;5047847;28;20047;-64
2021/10/23 01:57:46;;;;;;;7.13;1.33;;;;;;;9.80;59.43;100896.09;5048275;28;20031;-64
2021/10/23 02:00:14;;;;;;;5.82;1.23;;;;;;;9.82;59.30;100898.66;5047928;28;20033;-64
2021/10/23 02:02:40;;;;;;;6.00;2.00;;;;;;;9.82;59.27;100898.66;5048238;28;20052;-68
2021/10/23 02:05:06;;;;;;;6.00;1.75;;;;;;;9.84;59.20;100905.63;5027646;28;20471;-68
2021/10/23 02:07:35;;;;;;;9.10;1.60;;;;;;;9.86;59.16;100906.34;5030376;28;20047;-69
2021/10/23 02:10:01;;;;;;;5.30;1.50;;;;;;;9.86;59.53;100911.72;5026947;28;20029;-69
2021/10/23 02:12:27;;;;;;;8.70;1.70;;;;;;;9.85;59.43;100906.47;5031323;28;20032;-69
2021/10/23 02:14:52;;;;;;;5.72;1.85;;;;;;;9.88;59.59;100917.81;5049420;28;20087;-69
2021/10/23 02:17:18;;;;;;;6.20;1.70;;;;;;;9.85;59.37;100910.00;5047321;28;20028;-68
2021/10/23 02:19:44;;;;;;;6.30;1.70;;;;;;;9.88;59.30;100922.31;5031649;28;20025;-69
2021/10/23 02:22:09;;;;;;;4.28;1.67;;;;;;;9.87;59.50;100934.84;5032912;28;20079;-68
2021/10/23 02:24:34;;;;;;;6.38;1.73;;;;;;;9.89;59.01;100942.78;5045428;28;20537;-69
2021/10/23 02:27:00;;;;;;;6.00;1.40;;;;;;;9.83;59.55;100932.53;5031838;28;20427;-69
2021/10/23 02:29:26;;;;;;;5.70;1.73;;;;;;;9.90;59.19;100948.00;5028507;28;20037;-69
2021/10/23 02:31:51;;;;;;;3.72;1.80;;;;;;;9.86;59.44;100949.22;5027693;28;20091;-69
2021/10/23 02:34:17;;;;;;;3.72;1.65;;;;;;;9.88;59.15;100959.81;5027163;28;20024;-68
2021/10/23 02:36:44;;;;;;;10.55;1.83;;;;;;;9.83;59.64;100965.53;5027216;28;20046;-68
2021/10/23 02:39:09;;;;;;;6.80;1.60;;;;;;;9.77;59.87;100960.63;5033282;28;20049;-69
2021/10/23 02:41:35;;;;;;;7.40;1.90;;;;;;;9.73;59.82;100961.81;5035436;28;20257;-68
2021/10/23 02:44:01;;;;;;;5.47;1.58;;;;;;;9.76;59.97;100968.75;5042306;28;20542;-68
2021/10/23 02:46:26;;;;;;;6.10;1.67;;;;;;;9.72;60.10;100970.84;5030023;28;20045;-68
2021/10/23 02:48:52;;;;;;;4.70;1.70;;;;;;;9.72;59.99;100970.84;5027346;28;20044;-69
2021/10/23 02:51:17;;;;;;;4.90;1.98;;;;;;;9.59;60.07;100955.78;5026791;28;20032;-68
2021/10/23 02:53:43;;;;;;;5.95;1.50;;;;;;;9.70;60.13;100970.09;5027357;28;20057;-69
2021/10/23 02:56:08;;;;;;;7.13;1.55;;;;;;;9.68;60.20;100963.13;5037008;28;20029;-68
2021/10/23 02:58:34;;;;;;;7.45;2.00;;;;;;;9.66;59.88;100957.03;5038749;28;20020;-68
2021/10/23 03:00:59;;;;;;;8.30;1.60;;;;;;;9.74;59.67;100976.09;5027198;28;20060;-68
2021/10/23 03:03:25;;;;;;;8.20;1.83;;;;;;;9.63;59.53;100967.97;5026640;28;20450;-68
2021/10/23 03:05:51;;;;;;;7.43;1.90;;;;;;;9.74;59.71;100984.94;5027277;28;20347;-69
2021/10/23 03:08:16;;;;;;;5.60;1.80;;;;;;;9.73;59.78;100979.69;5035808;28;20039;-69
2021/10/23 03:10:42;;;;;;;6.63;1.83;;;;;;;9.71;59.70;100976.31;5026395;28;20045;-69
2021/10/23 03:13:08;;;;;;;4.60;1.85;;;;;;;9.70;59.57;100977.28;5022153;28;20041;-68
2021/10/23 03:15:34;;;;;;;7.85;1.58;;;;;;;9.72;59.50;100988.72;5032174;28;20119;-68
2021/10/23 03:17:59;;;;;;;5.78;1.35;;;;;;;9.67;59.77;100975.66;5017988;28;20501;-69
2021/10/23 03:20:25;;;;;;;6.68;2.30;;;;;;;9.59;59.99;100972.72;5023608;28;20021;-68
2021/10/23 03:22:51;;;;;;;6.00;1.73;;;;;;;9.64;60.01;100975.88;5020627;28;20112;-69
2021/10/23 03:25:16;;;;;;;7.38;1.88;;;;;;;9.60;60.31;100977.09;5022702;28;20123;-69
2021/10/23 03:27:42;;;;;;;6.70;2.03;;;;;;;9.61;60.08;100981.47;5027117;28;20033;-69
2021/10/23 03:30:08;;;;;;;6.68;1.48;;;;;;;9.62;60.13;101001.06;5026515;28;20021;-69
2021/10/23 03:32:34;;;;;;;7.13;1.77;;;;;;;9.61;60.17;101008.25;5031461;28;20029;-69
2021/10/23 03:35:00;;;;;;;5.15;1.77;;;;;;;9.49;60.07;100982.38;5016762;28;20040;-68
2021/10/23 03:37:30;;;;;;;4.07;1.35;;;;;;;9.56;60.30;101002.38;5024320;28;20029;-68
2021/10/23 03:39:57;;;;;;;6.38;1.85;;;;;;;9.61;60.00;101008.25;5029995;28;20033;-68
2021/10/23 03:42:22;;;;;;;3.58;1.60;;;;;;;9.60;60.13;101009.22;5025956;28;20063;-69
2021/10/23 03:44:48;;;;;;;5.32;2.13;;;;;;;9.68;59.86;101014.03;5025189;28;20076;-69
2021/10/23 03:47:16;;;;;;;6.75;2.13;;;;;;;9.64;60.07;101013.38;5023112;28;20079;-69
2021/10/23 03:49:42;;;;;;;9.52;2.38;;;;;;;9.41;60.09;100981.22;5018728;28;20025;-68
2021/10/23 03:52:08;;;;;;;6.20;1.80;;;;;;;9.61;59.90;101010.09;5023177;28;20079;-68
2021/10/23 03:54:33;;;;;;;7.15;1.65;;;;;;;9.58;59.79;101004.94;5024229;28;20037;-69
2021/10/23 03:56:58;;;;;;;7.82;1.98;;;;;;;9.56;59.84;100997.03;5032766;28;20041;-68
2021/10/23 03:59:24;;;;;;;5.32;1.40;;;;;;;9.56;59.95;100998.84;5023825;28;20030;-68
2021/10/23 04:01:49;;;;;;;3.83;1.50;;;;;;;9.58;60.12;100999.59;5031796;28;20381;-68
2021/10/23 04:04:15;;;;;;;8.15;1.90;;;;;;;9.61;59.88;101005.56;5037026;28;20028;-68
2021/10/23 04:06:41;;;;;;;6.72;1.85;;;;;;;9.57;60.11;101004.09;5032590;28;20032;-69
2021/10/23 04:09:06;;;;;;;5.22;1.60;;;;;;;9.54;60.40;101003.47;5026149;28;20109;-68
2021/10/23 04:11:32;;;;;;;4.03;1.55;;;;;;;9.53;60.51;101016.00;5019014;28;20038;-68
2021/10/23 04:13:57;;;;;;;5.47;1.80;;;;;;;9.49;60.47;101010.97;5020162;28;20104;-69
2021/10/23 04:16:23;;;;;;;7.05;2.25;;;;;;;9.52;60.23;101019.66;5029242;28;20139;-69
2021/10/23 04:18:48;;;;;;;5.05;1.98;;;;;;;9.50;60.32;101021.56;5037186;28;20432;-68
2021/10/23 04:21:15;;;;;;;8.18;1.70;;;;;;;9.48;60.55;101017.31;5045996;28;20071;-68
2021/10/23 04:23:41;;;;;;;7.13;1.83;;;;;;;9.47;60.29;101023.59;5045348;28;20029;-68
2021/10/23 04:26:06;;;;;;;7.38;2.03;;;;;;;9.41;60.71;101027.56;5034439;28;20460;-68
2021/10/23 04:28:32;;;;;;;8.70;3.10;;;;;;;9.40;60.78;101025.88;5032028;28;20029;-68
2021/10/23 04:30:57;;;;;;;13.93;3.97;;;;;;;9.39;60.42;101024.19;5049807;28;20066;-68
2021/10/23 04:33:23;;;;;;;18.67;4.45;;;;;;;9.40;60.45;101023.19;5041788;28;20521;-69
2021/10/23 04:35:50;;;;;;;15.10;4.97;;;;;;;9.40;60.67;101031.22;5052310;28;20051;-68
2021/10/23 04:38:16;;;;;;;15.60;4.30;;;;;;;9.36;60.66;101023.53;5052313;28;20095;-68
2021/10/23 04:40:42;;;;;;;11.45;3.97;;;;;;;9.37;60.65;101033.25;5035922;28;20029;-68
2021/10/23 04:43:07;;;;;;;7.53;2.92;;;;;;;9.34;61.11;101023.63;5032720;28;20021;-69
2021/10/23 04:45:33;;;;;;;7.30;2.97;;;;;;;9.37;60.91;101034.13;5039019;28;20106;-68
2021/10/23 04:48:00;;;;;;;12.77;3.10;;;;;;;9.33;60.81;101030.81;5052055;28;20033;-68
2021/10/23 04:50:26;;;;;;;8.27;2.63;;;;;;;9.39;61.05;101036.69;5050588;28;20021;-68
2021/10/23 04:52:52;;;;;;;8.85;2.25;;;;;;;9.38;61.07;101043.84;5052494;28;20040;-68
2021/10/23 04:55:17;;;;;;;8.98;1.98;;;;;;;9.49;60.76;101043.09;5051995;28;20395;-68
2021/10/23 04:57:43;;;;;;;6.70;2.25;;;;;;;9.41;60.84;101043.66;5051750;28;20110;-68
2021/10/23 05:00:09;;;;;;;5.63;1.83;;;;;;;9.41;60.84;101048.16;5038513;28;20036;-68
2021/10/23 05:02:34;;;;;;;6.63;1.77;;;;;;;9.28;61.53;101049.03;5032240;28;20111;-68
2021/10/23 05:05:00;;;;;;;6.32;1.70;;;;;;;9.25;61.89;101062.63;5049985;28;20500;-68
2021/10/23 05:07:25;;;;;;;7.07;1.85;;;;;;;9.26;62.21;101075.03;5051943;28;20021;-68
2021/10/23 05:09:50;;;;;;;4.13;1.73;;;;;;;9.24;62.09;101078.78;5051021;28;20386;-68
2021/10/23 05:12:16;;;;;;;5.43;1.60;;;;;;;9.21;62.46;101081.69;5049983;28;20425;-69
2021/10/23 05:14:41;;;;;;;8.15;1.40;;;;;;;9.16;62.65;101073.97;5032150;28;20472;-68
2021/10/23 05:17:07;;;;;;;4.07;1.30;;;;;;;9.14;62.86;101061.66;5050995;28;20033;-68
2021/10/23 05:19:33;;;;;;;6.65;1.75;;;;;;;9.21;62.51;101079.00;5051641;28;20029;-68
2021/10/23 05:21:58;;;;;;;6.60;1.75;;;;;;;9.11;62.68;101070.78;5051936;28;20390;-68
2021/10/23 05:24:24;;;;;;;3.35;1.23;;;;;;;9.15;62.81;101093.69;5045596;28;20130;-69
2021/10/23 05:26:50;;;;;;;5.40;2.42;;;;;;;9.20;62.79;101098.72;5045206;28;20033;-68
2021/10/23 05:29:16;;;;;;;7.80;2.42;;;;;;;9.20;62.88;101096.88;5052067;28;20573;-68
2021/10/23 05:31:42;;;;;;;5.60;1.70;;;;;;;9.21;62.75;101109.31;5043045;28;20026;-68
2021/10/23 05:34:07;;;;;;;8.80;1.92;;;;;;;9.16;63.15;101116.78;5031115;28;20645;-68
2021/10/23 05:36:32;;;;;;;3.83;1.60;;;;;;;9.11;63.31;101102.03;5039987;28;20120;-68
2021/10/23 05:38:58;;;;;;;6.00;1.83;;;;;;;9.19;62.94;101113.03;5049149;28;20506;-68
2021/10/23 05:41:24;;;;;;;4.22;1.60;;;;;;;9.14;63.63;101120.53;5046699;28;20055;-68
2021/10/23 05:43:50;;;;;;;5.07;1.85;;;;;;;9.16;63.36;101119.47;5033760;28;20790;-68
2021/10/23 05:46:16;;;;;;;8.02;2.03;;;;;;;9.21;63.23;101119.16;5029500;28;20057;-68
2021/10/23 05:48:42;;;;;;;6.38;2.10;;;;;;;9.15;63.82;101106.19;5029519;28;20040;-64
2021/10/23 05:51:07;;;;;;;6.95;2.40;;;;;;;9.22;62.94;101115.50;5029568;28;20033;-63
2021/10/23 05:53:33;;;;;;;7.28;2.40;;;;;;;9.20;62.89;101115.59;5029172;28;20041;-63
2021/10/23 05:55:59;;;;;;;8.45;2.35;;;;;;;9.29;63.34;101132.88;5040760;28;20071;-63
2021/10/23 05:58:28;;;;;;;5.35;2.25;;;;;;;9.32;63.43;101140.66;5049212;28;20052;-63
2021/10/23 06:00:57;;;;;;;7.43;1.73;;;;;;;9.40;63.34;101148.16;5049559;28;20100;-63
2021/10/23 06:03:27;;;;;;;5.50;1.85;;;;;;;9.40;63.33;101156.19;5049183;28;20043;-64
2021/10/23 06:05:52;;;;;;;6.82;1.98;;;;;;;9.40;63.17;101151.72;5049412;28;20033;-63
2021/10/23 06:08:18;;;;;;;6.05;1.90;;;;;;;9.50;62.87;101163.50;5044306;28;20017;-63
2021/10/23 06:10:43;;;;;;;6.72;2.53;;;;;;;9.54;62.83;101167.66;5029509;28;20376;-63
2021/10/23 06:13:11;;;;;;;7.80;1.77;;;;;;;9.62;62.47;101177.84;5029306;28;20112;-63
2021/10/23 06:15:36;;;;;;;5.18;1.80;;;;;;;9.74;61.33;101176.97;5029007;28;20123;-63
2021/10/23 06:18:03;;;;;;;5.35;2.20;;;;;;;9.81;61.01;101183.63;5025507;28;20041;-63
2021/10/23 06:20:29;;;;;;;5.18;2.08;;;;;;;9.88;60.85;101188.44;5028987;28;20029;-63
2021/10/23 06:22:55;;;;;;;4.70;1.55;;;;;;;9.91;60.29;101196.25;5028610;28;20087;-63
2021/10/23 06:25:21;;;;;;;10.13;2.15;;;;;;;9.80;61.03;101196.16;5044968;28;20676;-63
2021/10/23 06:27:46;;;;;;;4.10;1.40;;;;;;;9.81;61.14;101205.03;5048344;28;20047;-63
2021/10/23 06:30:13;;;;;;;3.80;2.08;;;;;;;9.88;60.65;101217.03;5048988;28;20103;-63
2021/10/23 06:32:49;;;;;;;4.63;1.98;;;;;;;9.87;60.66;101213.50;5048633;28;20036;-63
2021/10/23 06:35:15;;;;;;;7.45;2.05;;;;;;;9.89;60.51;101213.38;5048852;28;20522;-64
2021/10/23 06:37:40;;;;;;;11.73;2.67;;;;;;;9.85;60.75;101223.47;5048516;28;20112;-64
2021/10/23 06:40:07;;;;;;;8.48;1.98;;;;;;;9.85;60.97;101217.25;5048482;28;20071;-63
2021/10/23 06:42:32;;;;;;;5.90;1.70;;;;;;;9.90;60.74;101218.63;5034645;28;20029;-65
2021/10/23 06:44:58;;;;;;;5.13;1.67;;;;;;;9.89;60.86;101230.34;5027925;28;20341;-64
2021/10/23 06:47:23;;;;;;;6.18;2.15;;;;;;;9.90;60.82;101232.03;5028532;28;20033;-63
2021/10/23 06:49:49;;;;;;;5.30;2.00;;;;;;;9.92;61.05;101239.97;5027865;28;20099;-64
2021/10/23 06:52:14;;;;;;;5.47;2.63;;;;;;;9.98;61.38;101236.84;5028146;28;20079;-64
2021/10/23 06:54:40;;;;;;;5.88;2.05;;;;;;;10.07;60.91;101246.97;5048014;28;20387;-64
2021/10/23 06:57:05;;;;;;;5.90;1.85;;;;;;;10.10;60.66;101249.44;5048490;28;20033;-64
2021/10/23 06:59:31;;;;;;;8.25;2.58;;;;;;;10.21;59.65;101247.69;5038763;28;20037;-64
2021/10/23 07:01:56;;;;;;;7.07;1.80;;;;;;;10.37;59.62;101253.69;5041531;28;20029;-64
2021/10/23 07:04:21;;;;;;;6.60;1.80;;;;;;;10.45;59.66;101267.38;5026787;28;20052;-65
2021/10/23 07:06:47;;;;;;;6.32;2.75;;;;;;;10.49;59.12;101258.16;5043501;28;20028;-65
2021/10/23 07:09:12;;;;;;;10.48;2.10;;;;;;;10.55;59.39;101273.78;5045556;28;20082;-65
2021/10/23 07:11:38;;;;;;;4.32;1.83;;;;;;;10.52;58.94;101252.56;5044168;28;20017;-64
2021/10/23 07:14:03;;;;;;;7.60;2.88;;;;;;;10.69;58.75;101272.78;5046608;28;20036;-64
2021/10/23 07:16:29;;;;;;;5.53;2.00;;;;;;;10.76;58.97;101269.56;5046405;28;20033;-64
2021/10/23 07:18:54;;;;;;;5.43;1.90;;;;;;;10.89;59.09;101289.16;5045617;28;20035;-64
2021/10/23 07:21:20;;;;;;;5.55;2.45;;;;;;;10.99;58.88;101279.44;5046243;28;20024;-64
2021/10/23 07:23:45;;;;;;;4.93;2.13;;;;;;;11.09;58.66;101271.53;5046947;28;20024;-63
2021/10/23 07:26:10;;;;;;;8.73;3.08;;;;;;;11.27;58.62;101280.91;5046794;28;20037;-64
2021/10/23 07:28:36;;;;;;;6.45;2.47;;;;;;;11.38;57.90;101276.44;5046475;28;20028;-65
2021/10/23 07:31:01;;;;;;;5.32;2.00;;;;;;;11.54;57.70;101260.00;5046833;28;20032;-65
2021/10/23 07:33:27;;;;;;;4.63;2.03;;;;;;;11.88;55.33;101272.59;5044998;28;20043;-66
2021/10/23 07:35:52;;;;;;;5.55;2.22;;;;;;;12.15;54.52;101281.16;5046657;28;20063;-64
2021/10/23 07:38:18;;;;;;;9.63;2.17;;;;;;;12.48;52.85;101273.09;5046380;28;20107;-64
2021/10/23 07:40:44;;;;;;;4.80;1.73;;;;;;;12.90;51.16;101269.59;5045373;28;20079;-65
2021/10/23 07:43:11;;;;;;;6.05;1.73;;;;;;;13.06;50.90;101280.00;5046261;28;20029;-64
2021/10/23 07:45:37;;;;;;;4.65;2.05;;;;;;;13.13;50.36;101286.59;5045973;28;20049;-65
2021/10/23 07:48:03;;;;;;;3.97;1.52;;;;;;;13.13;51.02;101291.97;5046162;28;20040;-65
2021/10/23 07:50:29;;;;;;;4.15;1.75;;;;;;;13.00;51.14;101273.28;5035189;28;20036;-64
2021/10/23 07:52:56;;;;;;;6.05;2.25;;;;;;;13.10;50.98;101289.53;5026408;28;20382;-65
2021/10/23 07:55:21;;;;;;;5.20;2.03;;;;;;;13.11;50.89;101293.94;5026003;28;20025;-65
2021/10/23 07:57:47;;;;;;;5.97;1.75;;;;;;;13.09;50.87;101293.22;5026489;28;20029;-64
2021/10/23 08:00:12;;;;;;;5.75;2.25;;;;;;;13.05;51.58;101295.31;5024984;28;20053;-64
2021/10/23 08:02:54;;;;;;;4.32;1.80;;;;;;;12.97;50.79;101280.72;5025313;28;20037;-65
2021/10/23 08:05:22;;;;;;;5.45;1.98;;;;;;;12.95;51.15;101280.84;5026078;28;20506;-64
2021/10/23 08:07:48;;;;;;;10.65;2.05;;;;;;;13.00;50.79;101291.28;5026162;28;20097;-64
2021/10/23 08:10:13;;;;;;;4.28;1.83;;;;;;;13.02;51.02;101302.75;5026266;28;20120;-64
2021/10/23 08:12:42;;;;;;;5.20;2.08;;;;;;;12.88;51.09;101281.47;5025570;28;20060;-63
2021/10/23 08:15:09;;;;;;;4.72;2.47;;;;;;;12.95;51.38;101291.63;5026436;28;20029;-63
2021/10/23 08:17:35;;;;;;;5.10;1.88;;;;;;;12.92;51.07;101296.41;5046426;28;20051;-63
2021/10/23 08:20:00;;;;;;;6.50;2.20;;;;;;;12.96;51.53;101298.72;5045836;28;20020;-64
2021/10/23 08:22:25;;;;;;;6.22;1.73;;;;;;;12.95;51.16;101294.31;5046217;28;20028;-64
2021/10/23 08:24:53;;;;;;;6.18;2.42;;;;;;;12.93;52.11;101300.81;5045630;28;20274;-62
2021/10/23 08:27:19;;;;;;;5.65;2.40;;;;;;;12.91;52.27;101298.25;5044146;28;20035;-63
2021/10/23 08:29:45;;;;;;;8.20;2.80;;;;;;;12.85;51.79;101298.75;5019994;28;20029;-63
2021/10/23 08:32:14;;;;;;;7.15;2.15;;;;;;;12.86;51.90;101315.75;5025078;28;20018;-63
2021/10/23 08:34:41;;;;;;;5.32;2.20;;;;;;;12.75;51.89;101313.06;5033134;28;20029;-63
2021/10/23 08:37:07;;;;;;;6.10;2.80;;;;;;;12.69;52.75;101318.94;5044905;28;20398;-62
2021/10/23 08:39:32;;;;;;;7.70;2.70;;;;;;;12.64;53.03;101318.47;5044595;28;20098;-63
2021/10/23 08:41:58;;;;;;;9.02;2.72;;;;;;;12.66;52.40;101319.19;5044831;28;20531;-63
2021/10/23 08:44:26;;;;;;;7.18;2.50;;;;;;;12.79;51.89;101322.59;5044540;28;20071;-62
2021/10/23 08:46:53;;;;;;;4.53;2.15;;;;;;;12.70;52.15;101315.28;5044628;28;20094;-63
2021/10/23 08:49:20;;;;;;;6.28;2.03;;;;;;;12.58;52.80;101313.59;5044790;28;20124;-62
2021/10/23 08:51:45;;;;;;;9.55;2.10;;;;;;;12.54;53.17;101321.03;5045859;28;20427;-62
2021/10/23 08:54:14;;;;;;;4.38;2.22;;;;;;;12.51;53.18;101312.38;5044007;28;20025;-62
2021/10/23 08:56:41;;;;;;;5.80;2.50;;;;;;;12.57;52.90;101319.94;5043724;28;20123;-62
2021/10/23 08:59:06;;;;;;;8.20;2.60;;;;;;;12.43;52.97;101299.53;5040340;28;20100;-63
2021/10/23 09:01:32;;;;;;;9.90;2.90;;;;;;;12.61;52.62;101316.88;5045144;28;20124;-62
2021/10/23 09:03:57;;;;;;;7.57;3.03;;;;;;;12.52;53.14;101306.00;5045760;28;20025;-63
2021/10/23 09:06:33;;;;;;;8.00;3.13;;;;;;;12.67;53.21;101320.94;5045479;28;20041;-63
2021/10/23 09:08:58;;;;;;;8.77;3.38;;;;;;;12.71;52.74;101311.63;5045580;28;20085;-63
2021/10/23 09:11:31;;;;;;;8.60;2.95;;;;;;;12.83;52.50;101321.41;5045083;28;20029;-63
2021/10/23 09:14:35;;;;;;;10.43;2.70;;;;;;;12.98;52.19;101307.53;5048047;28;20025;-63
2021/10/23 09:17:06;;;;;;;7.57;2.30;;;;;;;13.20;51.95;101315.59;5047720;28;20028;-62
2021/10/23 09:19:51;;;;;;;10.75;3.05;;;;;;;13.44;51.67;101316.22;5034135;28;20041;-62
2021/10/23 09:22:35;;;;;;;6.60;2.40;;;;;;;13.86;50.08;101311.72;5029422;28;20025;-63
2021/10/23 09:25:21;;;;;;;9.98;2.50;;;;;;;14.42;47.39;101302.31;5029381;28;20032;-61
2021/10/23 09:27:49;;;;;;;4.22;2.03;;;;;;;15.83;44.99;101304.53;5029372;28;20037;-62
2021/10/23 09:30:16;;;;;;;6.07;1.60;;;;;;;17.69;41.24;101299.53;5029486;28;20395;-62
2021/10/23 09:32:48;;;;;;;4.47;2.28;;;;;;;19.77;37.04;101294.22;5028710;28;20032;-62
2021/10/23 09:35:15;;;;;;;5.30;2.00;;;;;;;21.72;33.09;101284.13;5029490;28;20025;-63
2021/10/23 09:37:44;;;;;;;5.43;2.05;;;;;;;23.40;30.78;101284.13;5029090;28;20415;-62
2021/10/23 09:40:11;;;;;;;4.53;1.73;;;;;;;24.83;28.73;101270.78;5036171;28;20025;-62
2021/10/23 09:42:37;;;;;;;4.00;1.63;;;;;;;26.07;26.86;101274.72;5041820;28;20032;-62
2021/10/23 09:45:06;;;;;;;6.55;1.65;;;;;;;26.97;25.62;101258.25;5028629;28;20053;-62
2021/10/23 09:47:37;;;;;;;3.42;1.55;;;;;;;27.73;24.42;101259.09;5028289;28;20037;-62
2021/10/23 09:50:14;;;;;;;3.05;1.50;;;;;;;27.89;23.97;101256.66;5028369;28;20139;-63
2021/10/23 09:52:57;;;;;;;5.53;1.90;;;;;;;27.65;23.80;101262.09;5028612;28;20038;-62
2021/10/23 09:55:23;;;;;;;5.77;1.33;;;;;;;27.36;24.04;101266.34;5042518;28;20025;-62
2021/10/23 09:58:18;;;;;;;2.85;1.50;;;;;;;26.43;24.73;101241.22;5048648;28;20338;-62
2021/10/23 10:00:46;;;;;;;5.00;1.63;;;;;;;25.71;25.89;101248.66;5048415;28;20021;-63
2021/10/23 10:03:13;;;;;;;2.83;1.65;;;;;;;24.98;26.69;101252.25;5048256;28;20104;-63
2021/10/23 10:05:40;;;;;;;8.23;1.75;;;;;;;24.13;27.71;101257.25;5047935;28;20025;-63
2021/10/23 10:08:10;;;;;;;4.78;1.52;;;;;;;23.42;28.64;101260.16;5034963;28;20037;-63
2021/10/23 10:10:40;;;;;;;3.47;1.23;;;;;;;22.74;28.96;101258.88;5028056;28;20099;-63
2021/10/23 10:13:06;;;;;;;5.75;1.45;;;;;;;21.70;30.35;101269.81;5028311;28;20069;-62
2021/10/23 10:15:34;;;;;;;2.70;1.60;;;;;;;20.82;31.58;101261.31;5047953;28;20036;-63
2021/10/23 10:18:05;;;;;;;3.40;1.13;;;;;;;19.89;32.65;101267.50;5048048;28;20024;-63
2021/10/23 10:20:36;;;;;;;3.45;1.25;;;;;;;19.22;33.90;101270.50;5047589;28;20035;-63
2021/10/23 10:23:03;;;;;;;3.00;1.15;;;;;;;18.66;35.05;101276.59;5048060;28;20083;-63
2021/10/23 10:25:28;;;;;;;3.70;1.23;;;;;;;18.20;36.53;101270.72;5047032;28;20021;-62
2021/10/23 10:27:55;;;;;;;5.60;1.67;;;;;;;17.84;37.19;101286.25;5047983;28;20124;-62
2021/10/23 10:30:25;;;;;;;2.00;1.25;;;;;;;17.53;37.41;101282.25;5048044;28;20074;-63
2021/10/23 10:32:52;;;;;;;3.90;1.20;;;;;;;17.15;37.88;101287.97;5046637;28;20452;-63
2021/10/23 10:35:58;;;;;;;2.95;1.20;;;;;;;16.79;38.32;101287.03;5048206;28;20037;-63
2021/10/23 10:44:14;;;;;;;3.25;1.65;;;;;;;16.00;40.51;101287.59;5028388;28;20052;-62
2021/10/23 10:46:54;;;;;;;3.20;1.20;;;;;;;15.82;40.71;101282.06;5027273;28;20041;-62
2021/10/23 10:49:42;;;;;;;7.55;1.88;;;;;;;15.71;41.40;101275.97;5027952;28;20099;-63
2021/10/23 10:52:39;;;;;;;4.32;1.20;;;;;;;15.61;42.17;101284.06;5027632;28;20100;-62
2021/10/23 10:55:19;;;;;;;4.40;1.17;;;;;;;15.46;42.34;101263.88;5027354;28;20425;-63
2021/10/23 10:57:58;;;;;;;8.32;2.20;;;;;;;15.57;43.14;101284.50;5039751;28;20392;-63
2021/10/23 11:00:46;;;;;;;5.97;1.90;;;;;;;15.54;43.54;101288.34;5047033;28;20463;-62
2021/10/23 11:03:50;;;;;;;3.40;1.92;;;;;;;15.45;43.48;101277.53;5046878;28;20364;-62
2021/10/23 11:06:31;;;;;;;4.75;1.55;;;;;;;15.45;43.26;101291.91;5046052;28;20047;-64
2021/10/23 11:11:43;;;;;;;2.33;1.30;;;;;;;15.37;43.22;101297.19;5036187;28;20088;-62
2021/10/23 11:14:22;;;;;;;4.60;1.40;;;;;;;15.17;43.71;101272.94;5027000;28;20037;-63
2021/10/23 11:19:32;;;;;;;2.88;1.50;;;;;;;15.19;44.04;101292.56;5027339;28;20111;-62
2021/10/23 11:22:09;;;;;;;4.70;2.58;;;;;;;15.16;43.78;101285.56;5025732;28;20021;-62
2021/10/23 11:24:42;;;;;;;5.28;2.10;;;;;;;15.20;43.45;101311.34;5035966;28;20107;-62
2021/10/23 11:27:27;;;;;;;2.88;1.63;;;;;;;15.15;43.45;101301.94;5046760;28;20052;-63
2021/10/23 11:30:12;;;;;;;2.67;1.08;;;;;;;15.18;42.33;101285.44;5046923;28;20873;-63
2021/10/23 11:32:45;;;;;;;4.32;1.42;;;;;;;15.24;41.72;101298.41;5042852;28;20024;-62
2021/10/23 11:35:10;;;;;;;6.57;2.80;;;;;;;15.28;41.66;101297.13;5026918;28;20412;-62
2021/10/23 11:37:38;;;;;;;3.50;1.30;;;;;;;15.13;41.91;101274.22;5025463;28;20108;-63
2021/10/23 11:40:12;;;;;;;3.80;1.08;;;;;;;15.16;42.01;101290.16;5031359;28;20375;-63
2021/10/23 11:42:53;;;;;;;2.60;0.90;;;;;;;15.19;42.11;101292.56;5045122;28;20028;-65